createdAt,value
2022-12-25T00:06:47.101Z,17.8
2022-12-25T00:07:54.221Z,19.1
2022-12-25T00:09:01.417Z,17.7
2022-12-25T00:10:08.664Z,18.1
2022-12-25T02:17:39.215Z,13.3
2022-12-25T02:18:49.358Z,13.1
2022-12-25T02:19:57.125Z,11.8
2022-12-25T02:21:12.266Z,12.9
2022-12-25T04:29:21.780Z,12.9
2022-12-25T04:30:33.740Z,13.3
2022-12-25T04:31:45.660Z,14.2
2022-12-25T04:32:58.062Z,14.4
2022-12-25T04:34:10.288Z,14.3
2022-12-25T04:39:25.620Z,14.3
2022-12-25T04:40:32.695Z,11.5
2022-12-25T04:41:39.546Z,12.4
2022-12-25T04:42:46.749Z,12.1
2022-12-25T04:43:54.025Z,11.5
2022-12-25T04:45:39.303Z,11.5
2022-12-25T04:46:46.351Z,12.6
2022-12-25T04:47:53.462Z,12.1
2022-12-25T04:49:00.761Z,11.7
2022-12-25T04:50:07.700Z,10.6
2022-12-25T04:51:16.327Z,12.2
2022-12-25T04:52:23.627Z,11.5
2022-12-25T04:53:30.702Z,11.8
2022-12-25T04:54:37.863Z,11.3
2022-12-25T04:55:44.720Z,11.5
2022-12-25T04:57:09.441Z,11.1
2022-12-25T04:58:16.480Z,11.3
2022-12-25T04:59:23.698Z,11.5
2022-12-25T05:00:30.781Z,11.4
2022-12-25T05:01:37.667Z,11.5
2022-12-25T05:02:45.475Z,11.8
2022-12-25T05:03:52.450Z,11.6
2022-12-25T05:04:59.861Z,10.9
2022-12-25T05:06:06.986Z,10.4
2022-12-25T05:07:13.949Z,11.2
2022-12-25T05:35:25.883Z,10
2022-12-25T05:36:32.988Z,10.6
2022-12-25T05:37:40.052Z,10.8
2022-12-25T05:38:47.022Z,10.7
2022-12-25T05:59:46.611Z,10
2022-12-25T06:00:53.830Z,9.8
2022-12-25T06:02:01.137Z,10.7
2022-12-25T06:03:08.480Z,11
2022-12-25T06:04:15.353Z,10.3
2022-12-25T06:13:07.795Z,10.3
2022-12-25T06:14:14.856Z,12.1
2022-12-25T06:15:22.031Z,12.9
2022-12-25T06:16:34.125Z,12.7
2022-12-25T06:17:36.534Z,11.3
2022-12-25T06:22:26.521Z,10.6
2022-12-25T06:23:33.531Z,11.3
2022-12-25T06:24:40.696Z,11.4
2022-12-25T06:25:47.795Z,11.1
2022-12-25T06:26:54.907Z,10.3
2022-12-25T06:42:04.506Z,11.1
2022-12-25T06:43:11.418Z,11.2
2022-12-25T06:44:18.583Z,12.1
2022-12-25T06:45:25.756Z,11.7
2022-12-25T06:55:47.436Z,12.5
2022-12-25T06:56:54.554Z,12
2022-12-25T06:58:01.730Z,14.2
2022-12-25T06:59:08.888Z,13.5
2022-12-25T07:00:21.150Z,13.4
2022-12-25T07:01:28.402Z,13.3
2022-12-25T07:02:35.626Z,13.5
2022-12-25T07:03:42.343Z,14.5
2022-12-25T07:04:49.551Z,14.5
2022-12-25T07:06:09.846Z,14.7
2022-12-25T07:07:17.013Z,15.2
2022-12-25T07:08:24.259Z,14.7
2022-12-25T07:09:31.465Z,16
2022-12-25T07:10:38.734Z,15.8
2022-12-25T07:38:05.653Z,14.3
2022-12-25T07:39:12.762Z,13.2
2022-12-25T07:40:19.941Z,13.1
2022-12-25T07:41:27.165Z,11.8
2022-12-25T07:42:35.502Z,12.4
2022-12-25T07:43:42.635Z,12.4
2022-12-25T07:44:49.842Z,12.6
2022-12-25T07:45:57.030Z,12
2022-12-25T07:47:04.153Z,13.2
2022-12-25T07:52:03.934Z,13.2
2022-12-25T07:53:10.815Z,14.3
2022-12-25T07:54:17.472Z,13.7
2022-12-25T07:55:24.589Z,14.7
2022-12-25T07:56:31.792Z,14.7
2022-12-25T08:00:04.169Z,15
2022-12-25T08:01:11.917Z,15.2
2022-12-25T08:02:24.861Z,14.7
2022-12-25T08:03:32.081Z,14.3
2022-12-25T08:05:39.529Z,14.3
2022-12-25T08:06:46.273Z,13.4
2022-12-25T08:07:57.292Z,14
2022-12-25T08:09:00.713Z,13.9
2022-12-25T08:10:07.764Z,13.9
2022-12-25T08:14:08.352Z,14.3
2022-12-25T08:15:15.490Z,13.7
2022-12-25T08:16:22.736Z,14.7
2022-12-25T08:17:29.741Z,14.4
2022-12-25T08:19:31.521Z,14.4
2022-12-25T08:20:38.725Z,14
2022-12-25T08:21:46.020Z,15.3
2022-12-25T08:22:53.157Z,14.8
2022-12-25T08:24:00.173Z,13.9
2022-12-25T08:27:43.773Z,13.4
2022-12-25T08:28:50.943Z,12.1
2022-12-25T08:29:58.071Z,12.1
2022-12-25T08:31:05.371Z,11.9
2022-12-25T09:14:37.845Z,17.7
2022-12-25T09:15:45.261Z,16.2
2022-12-25T09:16:52.216Z,16.6
2022-12-25T09:17:59.311Z,17.8
2022-12-25T09:40:05.380Z,17.8
2022-12-25T09:41:12.675Z,16.8
2022-12-25T09:42:25.055Z,16.2
2022-12-25T09:43:32.409Z,16.2
2022-12-25T09:44:42.303Z,15.6
2022-12-25T10:26:46.933Z,11.9
2022-12-25T10:27:53.849Z,13
2022-12-25T10:29:06.265Z,11.7
2022-12-25T10:30:18.686Z,11.9
2022-12-25T10:31:50.190Z,12.2
2022-12-25T10:32:57.467Z,11.5
2022-12-25T10:34:04.635Z,11.5
2022-12-25T10:35:12.585Z,11.5
2022-12-25T10:36:22.451Z,11.5
2022-12-25T10:37:33.304Z,9.9
2022-12-25T10:38:40.561Z,10.3
2022-12-25T10:39:47.761Z,10.5
2022-12-25T10:40:55.174Z,10.6
2022-12-25T10:42:07.162Z,10.6
2022-12-25T10:43:42.495Z,10.5
2022-12-25T10:44:52.365Z,10.6
2022-12-25T10:46:02.624Z,10.3
2022-12-25T10:47:12.291Z,10.3
2022-12-25T10:48:19.441Z,10.3
2022-12-25T10:53:01.792Z,10
2022-12-25T10:54:08.686Z,10.1
2022-12-25T10:55:25.038Z,10.4
2022-12-25T10:56:28.151Z,9.2
2022-12-25T10:57:35.293Z,10.3
2022-12-25T10:58:47.197Z,10.7
2022-12-25T10:59:54.380Z,9.3
2022-12-25T11:01:01.548Z,9.6
2022-12-25T11:02:08.777Z,9.6
2022-12-25T11:04:16.508Z,9.6
2022-12-25T11:05:28.807Z,10.4
2022-12-25T11:06:35.825Z,11.3
2022-12-25T11:07:42.677Z,10.5
2022-12-25T11:08:54.995Z,10.6
2022-12-25T11:10:05.045Z,11
2022-12-25T11:11:09.560Z,10.8
2022-12-25T11:12:16.405Z,9.9
2022-12-25T11:13:23.639Z,9.5
2022-12-25T11:14:30.783Z,10
2022-12-25T11:15:37.538Z,9.7
2022-12-25T11:16:49.781Z,9.7
2022-12-25T11:17:57.000Z,9.6
2022-12-25T11:22:27.129Z,9
2022-12-25T11:23:34.323Z,8.8
2022-12-25T11:24:41.644Z,9.1
2022-12-25T11:25:48.859Z,9
2022-12-25T11:27:00.299Z,9.6
2022-12-25T11:28:07.276Z,8.7
2022-12-25T11:29:14.425Z,8.8
2022-12-25T11:30:31.732Z,8.5
2022-12-25T11:31:38.628Z,9.4
2022-12-25T11:32:52.068Z,8.6
2022-12-25T11:33:58.948Z,8.7
2022-12-25T11:35:11.289Z,8.7
2022-12-25T11:36:18.479Z,9.1
2022-12-25T11:37:33.185Z,8.6
2022-12-25T11:38:50.173Z,9.2
2022-12-25T11:39:57.171Z,8.8
2022-12-25T11:41:04.198Z,8.8
2022-12-25T11:42:11.214Z,8.8
2022-12-25T11:43:18.327Z,8.8
2022-12-25T11:44:32.319Z,8.8
2022-12-25T11:45:47.270Z,8.8
2022-12-25T11:46:57.512Z,8.8
2022-12-25T11:48:05.519Z,8.8
2022-12-25T11:49:17.926Z,8.8
2022-12-25T11:50:40.711Z,8.8
2022-12-25T11:51:53.759Z,8.8
2022-12-25T11:53:00.519Z,8.8
2022-12-25T11:54:18.125Z,8.8
2022-12-25T11:55:27.670Z,8.8
2022-12-25T11:56:41.334Z,7.9
2022-12-25T11:57:48.513Z,6.6
2022-12-25T11:58:55.485Z,6.9
2022-12-25T12:00:10.369Z,6.9
2022-12-25T12:01:17.548Z,6.9
2022-12-25T12:02:33.038Z,6.8
2022-12-25T12:03:42.232Z,6.2
2022-12-25T12:04:49.379Z,6.8
2022-12-25T12:05:56.556Z,6.1
2022-12-25T12:07:06.374Z,7.3
2022-12-25T12:08:22.024Z,7.2
2022-12-25T12:09:29.107Z,7.6
2022-12-25T12:10:44.166Z,8.1
2022-12-25T12:12:01.560Z,8.5
2022-12-25T12:14:03.074Z,8.5
2022-12-25T12:15:18.274Z,7.6
2022-12-25T12:16:30.765Z,7.6
2022-12-25T12:17:37.559Z,8
2022-12-25T12:18:49.940Z,7.9
2022-12-25T12:20:26.621Z,7.9
2022-12-25T12:21:33.683Z,7.9
2022-12-25T12:22:40.737Z,6
2022-12-25T12:23:47.856Z,6.9
2022-12-25T12:25:03.626Z,7.3
2022-12-25T12:29:04.618Z,6
2022-12-25T12:30:11.771Z,6.1
2022-12-25T12:31:24.006Z,6.2
2022-12-25T12:32:41.644Z,7.9
2022-12-25T12:33:48.766Z,7.9
2022-12-25T12:48:01.688Z,8.4
2022-12-25T12:49:18.988Z,8.6
2022-12-25T12:50:29.282Z,8.6
2022-12-25T12:51:39.602Z,8.6
2022-12-25T12:53:13.955Z,8.6
2022-12-25T12:54:26.201Z,10.8
2022-12-25T12:55:33.544Z,10
2022-12-25T12:56:40.938Z,10
2022-12-25T12:57:58.707Z,9.1
2022-12-25T12:59:22.755Z,8.9
2022-12-25T13:00:29.755Z,9.4
2022-12-25T13:01:47.672Z,10.7
2022-12-25T13:02:54.610Z,10.7
2022-12-25T13:04:11.855Z,9.5
2022-12-25T13:08:47.374Z,9
2022-12-25T13:09:54.627Z,9
2022-12-25T13:11:06.753Z,8.4
2022-12-25T13:12:21.665Z,9.8
2022-12-25T13:13:37.123Z,8.9
2022-12-25T13:14:44.347Z,9.5
2022-12-25T13:15:51.389Z,9.5
2022-12-25T13:16:58.525Z,9.5
2022-12-25T13:18:05.566Z,9.5
2022-12-25T13:20:22.699Z,9.5
2022-12-25T13:21:29.890Z,10.4
2022-12-25T13:22:36.861Z,11.9
2022-12-25T13:23:44.132Z,11.7
2022-12-25T13:24:51.264Z,10.7
2022-12-25T13:26:01.015Z,11.4
2022-12-25T13:27:08.183Z,11.7
2022-12-25T13:28:25.532Z,11.8
2022-12-25T13:29:32.698Z,13.2
2022-12-25T13:30:47.984Z,13.6
2022-12-25T13:31:55.054Z,13.5
2022-12-25T13:33:02.020Z,13.3
2022-12-25T13:34:09.164Z,14.5
2022-12-25T13:35:16.362Z,12.7
2022-12-25T13:49:12.857Z,13.8
2022-12-25T13:50:19.979Z,14.1
2022-12-25T13:51:30.221Z,14.6
2022-12-25T13:52:37.068Z,15.1
2022-12-25T14:26:11.411Z,20.5
2022-12-25T14:27:21.041Z,14.8
2022-12-25T14:28:28.196Z,12.3
2022-12-25T14:29:35.306Z,13.3
2022-12-25T15:25:34.560Z,13.3
2022-12-25T15:26:41.426Z,13.7
2022-12-25T15:27:48.750Z,14.8
2022-12-25T15:28:55.807Z,15
2022-12-25T15:30:11.056Z,15.3
2022-12-25T15:33:50.450Z,17.9
2022-12-25T15:34:57.281Z,17.8
2022-12-25T15:36:04.507Z,17.4
2022-12-25T15:37:11.627Z,17.8
2022-12-25T15:46:04.926Z,17.8
2022-12-25T15:47:12.268Z,20.3
2022-12-25T15:48:19.403Z,20.8
2022-12-25T15:49:26.626Z,25.3
2022-12-25T15:50:33.825Z,28.2
2022-12-25T15:51:43.560Z,26.4
2022-12-25T15:52:50.459Z,27.1
2022-12-25T15:53:57.827Z,27.5
2022-12-25T15:55:04.655Z,28.7
2022-12-25T15:56:12.366Z,26.6
2022-12-25T15:57:19.429Z,26.4
2022-12-25T15:58:26.651Z,19.8
2022-12-25T15:59:33.958Z,19.5
2022-12-25T16:00:41.187Z,18.7
2022-12-25T16:01:48.452Z,17.6
2022-12-25T16:02:55.695Z,16.8
2022-12-25T16:04:03.518Z,14.3
2022-12-25T16:05:10.790Z,14.5
2022-12-25T16:06:17.670Z,14.1
2022-12-25T16:07:24.655Z,13.3
2022-12-25T16:08:31.873Z,13.7
2022-12-25T16:09:38.651Z,13
2022-12-25T16:10:45.847Z,13.6
2022-12-25T16:11:53.127Z,16.1
2022-12-25T16:13:00.243Z,17.4
2022-12-25T16:14:07.356Z,21.1
2022-12-25T16:15:14.558Z,20.1
2022-12-25T16:16:22.572Z,21.2
2022-12-25T16:17:29.355Z,19.3
2022-12-25T16:18:38.724Z,19
2022-12-25T16:19:43.523Z,18.2
2022-12-25T16:20:52.379Z,16.2
2022-12-25T16:21:59.181Z,17.4
2022-12-25T16:23:06.322Z,16.4
2022-12-25T16:24:13.502Z,16.6
2022-12-25T16:25:20.693Z,18.1
2022-12-25T16:26:28.378Z,19.7
2022-12-25T16:27:35.560Z,20.1
2022-12-25T16:28:42.330Z,20.6
2022-12-25T16:29:49.533Z,19.8
2022-12-25T16:30:56.707Z,18.6
2022-12-25T16:32:09.065Z,19
2022-12-25T16:33:16.126Z,19.4
2022-12-25T16:34:23.289Z,16.7
2022-12-25T16:35:30.616Z,17.2
2022-12-25T16:36:37.570Z,15.7
2022-12-25T16:37:44.407Z,16.4
2022-12-25T16:38:51.567Z,16.1
2022-12-25T16:39:58.717Z,16.4
2022-12-25T16:41:05.975Z,17.4
2022-12-25T16:42:13.047Z,19.7
2022-12-25T16:43:23.884Z,19.3
2022-12-25T16:44:27.399Z,20.5
2022-12-25T16:45:34.450Z,21.7
2022-12-25T16:46:42.500Z,22.8
2022-12-25T16:47:49.473Z,23.6
2022-12-25T16:48:56.783Z,23.8
2022-12-25T16:50:03.882Z,23
2022-12-25T16:51:10.940Z,22.7
2022-12-25T16:52:20.688Z,22.6
2022-12-25T16:53:27.835Z,21.6
2022-12-25T16:54:35.002Z,22
2022-12-25T16:55:42.022Z,22.4
2022-12-25T16:56:54.083Z,21.1
2022-12-25T16:58:01.397Z,21.2
2022-12-25T16:59:08.502Z,21.2
2022-12-25T17:00:15.678Z,19.4
2022-12-25T17:01:22.887Z,15.8
2022-12-25T17:02:39.998Z,16.3
2022-12-25T17:03:46.558Z,15.4
2022-12-25T17:04:53.647Z,15.1
2022-12-25T17:06:00.939Z,14.2
2022-12-25T17:07:07.991Z,15.1
2022-12-25T17:08:15.162Z,14.8
2022-12-25T17:09:22.012Z,14.1
2022-12-25T17:10:30.142Z,14.1
2022-12-25T17:11:37.213Z,14.4
2022-12-25T17:12:44.310Z,14.1
2022-12-25T17:13:51.210Z,14
2022-12-25T17:15:04.551Z,14.2
2022-12-25T17:16:11.738Z,14.9
2022-12-25T17:17:18.867Z,15.4
2022-12-25T17:18:26.038Z,15.7
2022-12-25T17:19:33.257Z,14.6
2022-12-25T17:20:40.131Z,15.4
2022-12-25T17:21:52.469Z,15.1
2022-12-25T17:22:59.567Z,15.9
2022-12-25T17:24:09.745Z,15.5
2022-12-25T17:25:16.859Z,18.2
2022-12-25T17:26:23.551Z,18.9
2022-12-25T17:27:30.743Z,19.9
2022-12-25T17:28:37.862Z,20.6
2022-12-25T17:29:44.790Z,22.2
2022-12-25T17:31:12.253Z,22.8
2022-12-25T17:32:19.527Z,22.1
2022-12-25T17:33:26.785Z,23.5
2022-12-25T17:34:33.895Z,24.3
2022-12-25T17:35:40.701Z,24.1
2022-12-25T17:36:58.846Z,25.6
2022-12-25T17:38:05.898Z,24.7
2022-12-25T17:39:12.962Z,25
2022-12-25T17:40:20.152Z,24.5
2022-12-25T17:41:27.186Z,23.9
2022-12-25T17:42:33.928Z,25.1
2022-12-25T17:43:40.809Z,25.5
2022-12-25T17:44:48.147Z,23.6
2022-12-25T17:45:55.067Z,25.3
2022-12-25T17:47:38.910Z,25.3
2022-12-25T17:48:45.996Z,24.9
2022-12-25T17:49:53.512Z,25.1
2022-12-25T17:51:00.714Z,24.9
2022-12-25T17:52:10.566Z,24.9
2022-12-25T17:55:47.510Z,23.3
2022-12-25T17:56:54.599Z,23.1
2022-12-25T17:58:01.775Z,22.2
2022-12-25T17:59:08.977Z,21.3
2022-12-25T18:27:23.746Z,21.3
2022-12-25T18:28:31.017Z,21.1
2022-12-25T18:29:38.169Z,21.9
2022-12-25T18:30:45.076Z,20.6
2022-12-25T18:31:52.378Z,21.6
2022-12-25T19:52:28.848Z,50.7
2022-12-25T19:53:35.871Z,56.8
2022-12-25T19:54:42.774Z,53.5
2022-12-25T19:55:49.929Z,57.1
2022-12-25T19:57:52.808Z,57.1
2022-12-25T19:58:59.870Z,57.2
2022-12-25T20:00:06.818Z,58.4
2022-12-25T20:01:14.054Z,58.7
2022-12-25T20:02:21.230Z,55.9
2022-12-25T20:03:45.697Z,54.2
2022-12-25T20:04:50.730Z,55.3
2022-12-25T20:05:57.945Z,51.7
2022-12-25T20:07:04.764Z,51.4
2022-12-25T20:08:11.962Z,52.5
2022-12-25T20:25:18.762Z,49.9
2022-12-25T20:26:25.857Z,49.1
2022-12-25T20:27:33.201Z,48.7
2022-12-25T20:28:40.471Z,45.4
2022-12-25T20:29:47.539Z,47
2022-12-25T20:30:54.725Z,46.8
2022-12-25T20:32:01.946Z,43.8
2022-12-25T20:33:08.998Z,47.3
2022-12-25T21:22:13.959Z,42.5
2022-12-25T21:23:21.055Z,46
2022-12-25T21:24:28.245Z,44.5
2022-12-25T21:25:35.553Z,45.3
2022-12-25T21:27:21.476Z,45.3
2022-12-25T21:28:28.338Z,46.3
2022-12-25T21:29:35.455Z,44
2022-12-25T21:30:42.422Z,45.2
2022-12-25T21:31:50.320Z,45.2
2022-12-25T21:33:05.856Z,45.1
2022-12-25T21:34:18.193Z,47.6
2022-12-25T21:35:25.279Z,46.3
2022-12-25T21:36:32.407Z,53.7
2022-12-25T21:37:39.250Z,56.7
2022-12-25T21:48:47.515Z,66.1
2022-12-25T21:49:54.657Z,61.4
2022-12-25T21:51:06.943Z,70.6
2022-12-25T21:52:19.249Z,75.2
2022-12-25T21:57:49.651Z,75.2
2022-12-25T21:58:56.738Z,70.8
2022-12-25T22:00:03.946Z,67.9
2022-12-25T22:01:11.778Z,70.3
2022-12-25T22:02:19.101Z,64.3
2022-12-25T22:22:29.317Z,62.1
2022-12-25T22:23:36.309Z,61.8
2022-12-25T22:24:43.098Z,63.9
2022-12-25T22:25:50.313Z,60.2
2022-12-25T22:37:29.553Z,60.2
2022-12-25T22:38:36.462Z,57.5
2022-12-25T22:39:43.259Z,55.4
2022-12-25T22:40:50.441Z,53.8
2022-12-25T22:41:57.649Z,57.3
2022-12-25T22:44:06.664Z,57.3
2022-12-25T22:44:41.786Z,55
2022-12-25T22:45:48.908Z,54.2
2022-12-25T22:46:56.070Z,56.2
2022-12-25T22:48:03.300Z,57.5
2022-12-25T23:02:32.296Z,49.9
2022-12-25T23:03:39.392Z,51.6
2022-12-25T23:04:46.469Z,49.7
2022-12-25T23:05:53.710Z,47.5
2022-12-25T23:24:26.889Z,47.5
2022-12-25T23:25:39.168Z,50.4
2022-12-25T23:26:51.188Z,51.6
2022-12-25T23:27:58.337Z,52.9
2022-12-25T23:29:05.469Z,52.8
2022-12-25T23:34:20.446Z,52.8
2022-12-25T23:35:27.440Z,58.1
2022-12-25T23:36:34.693Z,57.9
2022-12-25T23:37:41.477Z,59.5
2022-12-25T23:38:48.702Z,60.7
2022-12-25T23:42:43.081Z,58.8
2022-12-25T23:43:50.367Z,58.1
2022-12-25T23:44:57.404Z,59.5
2022-12-25T23:46:04.645Z,58.4
2022-12-25T23:48:13.634Z,58.4
2022-12-25T23:49:20.478Z,58
2022-12-25T23:50:27.624Z,62
2022-12-25T23:51:34.806Z,60.5
2022-12-25T23:52:41.631Z,58.8
2022-12-25T23:57:46.717Z,58.8
2022-12-25T23:58:53.587Z,57.5
